createdAt,value
2023-01-29T00:01:57.775Z,70.01
2023-01-29T00:04:24.103Z,69.76
2023-01-29T00:06:50.419Z,69.89
2023-01-29T00:09:16.711Z,70.71
2023-01-29T00:11:42.999Z,69.03
2023-01-29T00:14:09.299Z,71.78
2023-01-29T00:16:35.589Z,68.78
2023-01-29T00:19:01.901Z,68.80
2023-01-29T00:21:28.224Z,69.78
2023-01-29T00:23:54.583Z,70.73
2023-01-29T00:26:20.929Z,71.19
2023-01-29T00:28:47.309Z,69.70
2023-01-29T00:31:13.640Z,70.46
2023-01-29T00:33:39.964Z,70.04
2023-01-29T00:36:06.267Z,70.26
2023-01-29T00:38:34.889Z,70.38
2023-01-29T00:41:01.183Z,70.13
2023-01-29T00:43:27.506Z,69.90
2023-01-29T00:45:53.787Z,69.67
2023-01-29T00:48:20.071Z,68.60
2023-01-29T00:50:46.376Z,69.17
2023-01-29T00:53:12.671Z,69.38
2023-01-29T00:55:38.966Z,68.89
2023-01-29T00:58:05.277Z,68.16
2023-01-29T01:00:31.579Z,67.55
2023-01-29T01:02:57.889Z,67.47
2023-01-29T01:05:24.625Z,67.36
2023-01-29T01:07:50.933Z,68.07
2023-01-29T01:10:17.546Z,66.14
2023-01-29T01:12:44.102Z,66.38
2023-01-29T01:15:10.391Z,64.75
2023-01-29T01:17:36.707Z,66.66
2023-01-29T01:20:03.018Z,65.85
2023-01-29T01:22:29.318Z,65.81
2023-01-29T01:24:55.701Z,64.51
2023-01-29T01:27:22.010Z,65.04
2023-01-29T01:29:48.282Z,65.42
2023-01-29T01:32:14.573Z,66.81
2023-01-29T01:34:40.872Z,66.02
2023-01-29T01:37:07.166Z,67.61
2023-01-29T01:39:33.461Z,65.92
2023-01-29T01:42:05.961Z,66.48
2023-01-29T01:44:32.246Z,66.54
2023-01-29T01:46:58.544Z,64.69
2023-01-29T01:49:24.842Z,65.55
2023-01-29T01:51:51.128Z,66.07
2023-01-29T01:54:17.412Z,66.55
2023-01-29T01:56:43.714Z,67.09
2023-01-29T01:59:09.997Z,66.22
2023-01-29T02:01:36.281Z,66.60
2023-01-29T02:04:02.607Z,67.13
2023-01-29T02:06:28.897Z,66.51
2023-01-29T02:08:55.188Z,66.66
2023-01-29T02:11:21.521Z,66.04
2023-01-29T02:13:48.108Z,66.25
2023-01-29T02:16:14.403Z,66.35
2023-01-29T02:18:40.742Z,65.78
2023-01-29T02:21:07.032Z,65.65
2023-01-29T02:23:33.343Z,65.91
2023-01-29T02:25:59.669Z,66.40
2023-01-29T02:28:25.969Z,66.15
2023-01-29T02:30:52.274Z,66.28
2023-01-29T02:33:18.587Z,66.82
2023-01-29T02:35:44.876Z,67.28
2023-01-29T02:38:11.156Z,68.39
2023-01-29T02:40:37.463Z,67.99
2023-01-29T02:43:03.747Z,66.37
2023-01-29T02:45:30.068Z,66.02
2023-01-29T02:47:56.365Z,67.14
2023-01-29T02:50:22.656Z,66.18
2023-01-29T02:52:48.954Z,66.38
2023-01-29T02:55:15.270Z,67.49
2023-01-29T02:57:41.557Z,66.68
2023-01-29T03:00:07.843Z,67.09
2023-01-29T03:02:34.228Z,68.14
2023-01-29T03:05:00.624Z,67.16
2023-01-29T03:07:26.905Z,67.52
2023-01-29T03:09:53.216Z,67.64
2023-01-29T03:12:20.229Z,67.89
2023-01-29T03:14:46.671Z,69.34
2023-01-29T03:17:13.171Z,67.53
2023-01-29T03:19:39.493Z,67.33
2023-01-29T03:22:05.913Z,68.43
2023-01-29T03:24:32.256Z,68.71
2023-01-29T03:26:58.614Z,68.90
2023-01-29T03:29:24.915Z,68.01
2023-01-29T03:31:51.295Z,68.03
2023-01-29T03:34:17.586Z,68.62
2023-01-29T03:36:43.869Z,67.93
2023-01-29T03:39:10.168Z,69.21
2023-01-29T03:41:39.577Z,67.38
2023-01-29T03:44:05.857Z,68.34
2023-01-29T03:46:32.161Z,69.17
2023-01-29T03:48:58.596Z,68.76
2023-01-29T03:51:24.899Z,67.98
2023-01-29T03:53:51.212Z,67.80
2023-01-29T03:56:17.499Z,67.24
2023-01-29T03:58:43.795Z,67.89
2023-01-29T04:01:10.158Z,67.20
2023-01-29T04:03:36.493Z,68.01
2023-01-29T04:06:02.788Z,67.90
2023-01-29T04:08:29.099Z,67.69
2023-01-29T04:10:55.378Z,68.18
2023-01-29T04:13:21.648Z,69.01
2023-01-29T04:15:47.978Z,68.16
2023-01-29T04:18:14.275Z,69.67
2023-01-29T04:20:40.582Z,70.64
2023-01-29T04:23:06.928Z,68.40
2023-01-29T04:25:33.206Z,67.67
2023-01-29T04:27:59.485Z,68.08
2023-01-29T04:30:25.780Z,68.46
2023-01-29T04:32:52.054Z,68.26
2023-01-29T04:35:18.329Z,68.46
2023-01-29T04:37:44.687Z,68.78
2023-01-29T04:40:10.994Z,69.18
2023-01-29T04:42:37.274Z,69.59
2023-01-29T04:45:03.577Z,70.88
2023-01-29T04:47:29.892Z,70.33
2023-01-29T04:49:56.199Z,70.77
2023-01-29T04:52:22.516Z,69.95
2023-01-29T04:54:48.813Z,69.93
2023-01-29T04:57:15.106Z,70.78
2023-01-29T04:59:41.410Z,70.69
2023-01-29T05:02:07.711Z,69.83
2023-01-29T05:04:34.017Z,70.96
2023-01-29T05:07:00.332Z,69.71
2023-01-29T05:09:26.619Z,70.92
2023-01-29T05:11:52.903Z,70.77
2023-01-29T05:14:19.205Z,70.21
2023-01-29T05:16:45.487Z,70.86
2023-01-29T05:19:12.701Z,71.42
2023-01-29T05:21:41.057Z,70.83
2023-01-29T05:24:07.511Z,69.85
2023-01-29T05:26:33.832Z,68.92
2023-01-29T05:29:00.153Z,68.75
2023-01-29T05:31:26.544Z,68.73
2023-01-29T05:33:52.913Z,68.35
2023-01-29T05:36:19.227Z,69.44
2023-01-29T05:38:45.519Z,69.07
2023-01-29T05:41:11.802Z,68.04
2023-01-29T05:43:38.096Z,68.51
2023-01-29T05:46:04.384Z,68.50
2023-01-29T05:48:30.682Z,68.23
2023-01-29T05:50:56.984Z,68.55
2023-01-29T05:53:23.291Z,68.83
2023-01-29T05:55:49.586Z,68.01
2023-01-29T05:58:15.889Z,68.15
2023-01-29T06:00:42.172Z,68.04
2023-01-29T06:03:08.530Z,68.24
2023-01-29T06:05:34.867Z,69.02
2023-01-29T06:08:01.148Z,70.04
2023-01-29T06:10:27.456Z,67.91
2023-01-29T06:12:53.808Z,68.33
2023-01-29T06:15:20.097Z,68.81
2023-01-29T06:17:46.439Z,69.94
2023-01-29T06:20:12.769Z,70.44
2023-01-29T06:22:39.072Z,69.07
2023-01-29T06:25:05.371Z,70.14
2023-01-29T06:27:31.692Z,68.15
2023-01-29T06:29:57.974Z,68.25
2023-01-29T06:32:24.293Z,68.77
2023-01-29T06:34:50.673Z,68.52
2023-01-29T06:37:16.966Z,69.52
2023-01-29T06:39:43.257Z,69.54
2023-01-29T06:42:09.565Z,69.80
2023-01-29T06:44:35.854Z,68.04
2023-01-29T06:47:02.137Z,69.20
2023-01-29T06:49:28.455Z,68.73
2023-01-29T06:51:59.660Z,68.71
2023-01-29T06:54:25.940Z,68.92
2023-01-29T06:56:52.272Z,68.26
2023-01-29T06:59:18.564Z,68.50
2023-01-29T07:01:44.921Z,68.80
2023-01-29T07:04:11.304Z,69.01
2023-01-29T07:06:37.583Z,68.00
2023-01-29T07:09:03.871Z,68.04
2023-01-29T07:11:30.198Z,68.61
2023-01-29T07:13:56.496Z,68.69
2023-01-29T07:16:22.820Z,68.69
2023-01-29T07:18:49.154Z,66.98
2023-01-29T07:21:15.440Z,68.64
2023-01-29T07:23:41.725Z,68.12
2023-01-29T07:26:08.056Z,68.39
2023-01-29T07:28:34.355Z,68.24
2023-01-29T07:31:00.677Z,67.74
2023-01-29T07:33:26.997Z,68.64
2023-01-29T07:35:53.301Z,66.99
2023-01-29T07:38:19.593Z,67.76
2023-01-29T07:40:45.930Z,67.84
2023-01-29T07:43:12.215Z,68.16
2023-01-29T07:45:38.583Z,67.41
2023-01-29T07:48:05.009Z,67.92
2023-01-29T07:50:31.308Z,67.76
2023-01-29T07:52:57.608Z,67.26
2023-01-29T07:55:23.912Z,66.65
2023-01-29T07:57:50.201Z,66.90
2023-01-29T08:00:16.719Z,66.96
2023-01-29T08:02:43.172Z,66.82
2023-01-29T08:05:09.459Z,66.43
2023-01-29T08:07:35.753Z,66.85
2023-01-29T08:10:02.064Z,66.90
2023-01-29T08:12:28.405Z,66.72
2023-01-29T08:14:54.691Z,66.83
2023-01-29T08:17:21.024Z,66.70
2023-01-29T08:19:48.256Z,65.61
2023-01-29T08:22:14.619Z,66.10
2023-01-29T08:24:53.421Z,66.65
2023-01-29T08:27:26.232Z,66.74
2023-01-29T08:29:52.638Z,65.88
2023-01-29T08:32:19.150Z,66.22
2023-01-29T08:34:45.482Z,66.57
2023-01-29T08:37:11.795Z,65.80
2023-01-29T08:39:38.109Z,66.03
2023-01-29T08:42:04.391Z,65.97
2023-01-29T08:44:30.734Z,65.83
2023-01-29T08:46:57.027Z,65.50
2023-01-29T08:49:23.317Z,65.62
2023-01-29T08:51:51.420Z,65.63
2023-01-29T08:54:17.733Z,65.63
2023-01-29T08:56:44.030Z,65.39
2023-01-29T08:59:10.326Z,65.54
2023-01-29T09:01:36.625Z,65.24
2023-01-29T09:04:02.912Z,64.94
2023-01-29T09:06:29.231Z,65.18
2023-01-29T09:08:55.522Z,65.09
2023-01-29T09:11:21.811Z,64.41
2023-01-29T09:13:48.119Z,64.58
2023-01-29T09:16:14.441Z,64.28
2023-01-29T09:18:40.742Z,65.68
2023-01-29T09:21:07.068Z,65.20
2023-01-29T09:23:33.374Z,65.82
2023-01-29T09:25:59.666Z,65.34
2023-01-29T09:28:25.971Z,65.28
2023-01-29T09:30:52.305Z,65.06
2023-01-29T09:33:18.669Z,64.07
2023-01-29T09:35:44.981Z,64.80
2023-01-29T09:38:11.280Z,64.32
2023-01-29T09:40:37.575Z,63.79
2023-01-29T09:43:03.893Z,63.90
2023-01-29T09:45:30.181Z,64.54
2023-01-29T09:47:56.470Z,63.36
2023-01-29T09:50:22.818Z,64.44
2023-01-29T09:52:49.116Z,64.80
2023-01-29T09:55:15.665Z,64.35
2023-01-29T09:57:42.202Z,64.12
2023-01-29T10:00:08.477Z,64.30
2023-01-29T10:02:34.768Z,64.96
2023-01-29T10:05:01.093Z,64.73
2023-01-29T10:07:27.396Z,64.98
2023-01-29T10:09:53.688Z,64.79
2023-01-29T10:12:20.011Z,64.44
2023-01-29T10:14:46.301Z,64.41
2023-01-29T10:17:12.616Z,64.35
2023-01-29T10:19:38.932Z,64.33
2023-01-29T10:22:05.223Z,64.16
2023-01-29T10:24:31.508Z,64.17
2023-01-29T10:26:57.809Z,64.32
2023-01-29T10:29:24.121Z,63.60
2023-01-29T10:31:50.491Z,62.47
2023-01-29T10:34:16.853Z,63.40
2023-01-29T10:36:43.157Z,62.51
2023-01-29T10:39:09.462Z,63.16
2023-01-29T10:41:35.775Z,63.66
2023-01-29T10:44:02.066Z,63.97
2023-01-29T10:46:28.366Z,62.73
2023-01-29T10:48:54.676Z,62.28
2023-01-29T10:51:20.978Z,63.63
2023-01-29T10:53:47.271Z,63.76
2023-01-29T10:56:22.160Z,64.12
2023-01-29T10:58:48.879Z,63.70
2023-01-29T11:01:15.212Z,62.23
2023-01-29T11:03:41.599Z,62.98
2023-01-29T11:06:07.901Z,63.70
2023-01-29T11:08:34.226Z,63.77
2023-01-29T11:11:00.526Z,61.83
2023-01-29T11:13:26.854Z,61.72
2023-01-29T11:15:53.167Z,61.91
2023-01-29T11:18:19.448Z,62.89
2023-01-29T11:20:45.745Z,62.58
2023-01-29T11:23:12.057Z,62.62
2023-01-29T11:25:38.378Z,62.86
2023-01-29T11:28:04.673Z,60.80
2023-01-29T11:30:30.987Z,62.41
2023-01-29T11:32:57.292Z,61.26
2023-01-29T11:35:23.575Z,61.61
2023-01-29T11:37:49.892Z,62.48
2023-01-29T11:40:16.463Z,60.25
2023-01-29T11:42:42.953Z,60.54
2023-01-29T11:45:09.258Z,60.47
2023-01-29T11:47:35.548Z,60.06
2023-01-29T11:50:01.843Z,60.37
2023-01-29T11:52:28.185Z,58.87
2023-01-29T11:54:54.483Z,57.97
2023-01-29T11:57:20.789Z,58.80
2023-01-29T11:59:47.148Z,58.29
2023-01-29T12:02:13.448Z,60.95
2023-01-29T12:04:39.746Z,60.64
2023-01-29T12:07:06.059Z,59.73
2023-01-29T12:09:32.440Z,58.94
2023-01-29T12:11:58.723Z,59.75
2023-01-29T12:14:25.038Z,59.18
2023-01-29T12:16:51.357Z,57.56
2023-01-29T12:19:17.662Z,57.03
2023-01-29T12:21:43.971Z,58.06
2023-01-29T12:24:10.272Z,58.43
2023-01-29T12:26:36.606Z,59.62
2023-01-29T12:29:02.930Z,58.54
2023-01-29T12:31:29.246Z,58.44
2023-01-29T12:33:55.597Z,57.37
2023-01-29T12:36:21.903Z,57.75
2023-01-29T12:38:48.198Z,56.88
2023-01-29T12:41:14.474Z,56.34
2023-01-29T12:43:40.788Z,56.64
2023-01-29T12:46:07.089Z,56.71
2023-01-29T12:48:33.376Z,56.67
2023-01-29T12:50:59.683Z,57.28
2023-01-29T12:53:25.974Z,55.85
2023-01-29T12:55:52.265Z,55.34
2023-01-29T12:58:18.681Z,55.18
2023-01-29T13:00:45.027Z,55.17
2023-01-29T13:03:11.441Z,54.74
2023-01-29T13:05:37.815Z,56.41
2023-01-29T13:08:04.113Z,55.57
2023-01-29T13:10:30.403Z,56.26
2023-01-29T13:12:56.702Z,56.45
2023-01-29T13:15:23.009Z,56.92
2023-01-29T13:17:49.304Z,57.24
2023-01-29T13:20:15.821Z,55.79
2023-01-29T13:22:42.219Z,55.12
2023-01-29T13:25:08.506Z,55.37
2023-01-29T13:27:34.814Z,56.46
2023-01-29T13:30:01.111Z,56.84
2023-01-29T13:32:27.406Z,54.68
2023-01-29T13:34:53.708Z,54.77
2023-01-29T13:37:19.998Z,57.14
2023-01-29T13:39:46.278Z,57.86
2023-01-29T13:42:13.011Z,56.50
2023-01-29T13:44:39.905Z,57.08
2023-01-29T13:47:06.220Z,56.89
2023-01-29T13:49:32.519Z,56.04
2023-01-29T13:51:58.803Z,54.93
2023-01-29T13:54:25.091Z,55.40
2023-01-29T13:56:51.398Z,55.06
2023-01-29T13:59:17.674Z,54.44
2023-01-29T14:01:43.993Z,54.17
2023-01-29T14:04:10.336Z,55.00
2023-01-29T14:06:36.623Z,55.20
2023-01-29T14:09:02.997Z,55.66
2023-01-29T14:11:29.347Z,54.32
2023-01-29T14:13:55.649Z,54.45
2023-01-29T14:16:21.969Z,57.15
2023-01-29T14:18:48.291Z,56.87
2023-01-29T14:21:14.584Z,56.96
2023-01-29T14:23:40.879Z,56.95
2023-01-29T14:26:07.185Z,55.18
2023-01-29T14:28:33.560Z,55.88
2023-01-29T14:30:59.961Z,54.67
2023-01-29T14:33:26.369Z,54.55
2023-01-29T14:35:52.654Z,54.36
2023-01-29T14:38:18.938Z,55.66
2023-01-29T14:40:45.248Z,54.73
2023-01-29T14:43:11.548Z,53.91
2023-01-29T14:45:37.847Z,53.68
2023-01-29T14:48:04.165Z,53.30
2023-01-29T14:50:30.458Z,54.97
2023-01-29T14:52:56.760Z,55.70
2023-01-29T14:55:23.068Z,54.61
2023-01-29T14:57:49.361Z,56.04
2023-01-29T15:00:15.661Z,56.29
2023-01-29T15:02:42.029Z,54.87
2023-01-29T15:05:08.378Z,55.47
2023-01-29T15:07:34.656Z,56.35
2023-01-29T15:10:20.912Z,55.56
2023-01-29T15:12:47.215Z,54.44
2023-01-29T15:15:13.568Z,53.75
2023-01-29T15:17:39.855Z,53.50
2023-01-29T15:20:06.137Z,54.65
2023-01-29T15:22:32.461Z,55.42
2023-01-29T15:24:58.765Z,55.65
2023-01-29T15:27:25.054Z,55.25
2023-01-29T15:29:51.356Z,54.67
2023-01-29T15:32:17.661Z,55.28
2023-01-29T15:34:43.956Z,54.43
2023-01-29T15:37:10.356Z,55.80
2023-01-29T15:39:36.678Z,53.98
2023-01-29T15:42:02.963Z,53.16
2023-01-29T15:44:29.275Z,52.45
2023-01-29T15:46:55.653Z,53.47
2023-01-29T15:49:21.937Z,53.89
2023-01-29T15:51:48.240Z,53.99
2023-01-29T15:54:15.771Z,54.76
2023-01-29T15:56:42.219Z,54.04
2023-01-29T15:59:09.777Z,53.60
2023-01-29T16:01:36.272Z,53.69
2023-01-29T16:04:02.794Z,54.25
2023-01-29T16:06:29.112Z,55.48
2023-01-29T16:08:55.428Z,54.76
2023-01-29T16:11:21.742Z,54.57
2023-01-29T16:13:48.049Z,54.04
2023-01-29T16:16:14.366Z,55.46
2023-01-29T16:18:47.736Z,54.97
2023-01-29T16:21:20.687Z,55.75
2023-01-29T16:23:46.980Z,54.36
2023-01-29T16:26:13.321Z,54.89
2023-01-29T16:28:39.676Z,54.54
2023-01-29T16:31:06.248Z,55.10
2023-01-29T16:33:32.634Z,55.62
2023-01-29T16:35:58.939Z,54.64
2023-01-29T16:38:25.390Z,55.30
2023-01-29T16:40:51.678Z,56.47
2023-01-29T16:43:17.982Z,57.09
2023-01-29T16:45:44.570Z,58.06
2023-01-29T16:48:10.858Z,57.98
2023-01-29T16:50:46.369Z,56.41
2023-01-29T16:53:20.479Z,56.24
2023-01-29T16:55:46.797Z,57.06
2023-01-29T16:58:13.107Z,57.28
2023-01-29T17:00:39.460Z,58.05
2023-01-29T17:03:05.869Z,57.58
2023-01-29T17:05:32.173Z,58.42
2023-01-29T17:07:58.478Z,58.07
2023-01-29T17:10:24.802Z,58.12
2023-01-29T17:12:51.093Z,57.90
2023-01-29T17:15:17.733Z,57.19
2023-01-29T17:17:44.327Z,58.93
2023-01-29T17:20:10.628Z,59.11
2023-01-29T17:22:36.926Z,58.88
2023-01-29T17:25:03.280Z,59.67
2023-01-29T17:27:29.577Z,60.43
2023-01-29T17:29:55.862Z,59.76
2023-01-29T17:32:22.169Z,59.40
2023-01-29T17:34:49.233Z,58.84
2023-01-29T17:37:15.535Z,59.95
2023-01-29T17:39:41.979Z,60.07
2023-01-29T17:42:08.280Z,59.70
2023-01-29T17:44:34.575Z,60.24
2023-01-29T17:47:00.884Z,58.50
2023-01-29T17:49:27.172Z,59.52
2023-01-29T17:51:53.459Z,60.20
2023-01-29T17:54:20.065Z,60.96
2023-01-29T17:56:46.368Z,61.32
2023-01-29T17:59:12.655Z,60.20
2023-01-29T18:01:38.976Z,59.33
2023-01-29T18:04:05.381Z,59.39
2023-01-29T18:06:31.753Z,61.13
2023-01-29T18:08:58.078Z,61.17
2023-01-29T18:11:26.685Z,60.03
2023-01-29T18:13:52.990Z,60.46
2023-01-29T18:16:19.314Z,59.81
2023-01-29T18:18:45.759Z,59.68
2023-01-29T18:21:12.054Z,58.82
2023-01-29T18:23:38.383Z,57.72
2023-01-29T18:26:04.673Z,59.10
2023-01-29T18:28:31.092Z,59.06
2023-01-29T18:30:57.469Z,58.31
2023-01-29T18:33:23.770Z,58.15
2023-01-29T18:35:50.120Z,59.94
2023-01-29T18:38:21.248Z,59.32
2023-01-29T18:40:47.532Z,59.79
2023-01-29T18:43:13.815Z,59.29
2023-01-29T18:45:40.132Z,60.69
2023-01-29T18:48:06.447Z,60.51
2023-01-29T18:50:32.764Z,60.39
2023-01-29T18:52:59.068Z,58.75
2023-01-29T18:55:28.100Z,59.50
2023-01-29T18:58:27.495Z,59.74
2023-01-29T19:00:40.696Z,59.32
2023-01-29T19:03:06.981Z,59.56
2023-01-29T19:05:33.276Z,60.27
2023-01-29T19:07:59.595Z,59.98
2023-01-29T19:10:25.884Z,59.72
2023-01-29T19:12:52.178Z,59.80
2023-01-29T19:15:18.747Z,59.61
2023-01-29T19:17:45.336Z,59.61
2023-01-29T19:20:11.660Z,58.83
2023-01-29T19:22:37.990Z,58.61
2023-01-29T19:25:04.272Z,59.76
2023-01-29T19:27:30.635Z,60.56
2023-01-29T19:29:56.964Z,61.15
2023-01-29T19:32:23.241Z,61.07
2023-01-29T19:34:49.518Z,61.95
2023-01-29T19:37:15.872Z,60.51
2023-01-29T19:39:42.159Z,59.38
2023-01-29T19:42:08.453Z,58.18
2023-01-29T19:44:34.760Z,58.52
2023-01-29T19:47:01.047Z,59.43
2023-01-29T19:49:28.705Z,59.68
2023-01-29T19:51:55.018Z,59.00
2023-01-29T19:54:21.301Z,57.91
2023-01-29T19:56:47.576Z,58.02
2023-01-29T19:59:13.884Z,57.57
2023-01-29T20:01:40.209Z,56.93
2023-01-29T20:04:06.628Z,57.69
2023-01-29T20:06:32.948Z,59.56
2023-01-29T20:08:59.225Z,59.52
2023-01-29T20:11:25.524Z,60.59
2023-01-29T20:13:51.829Z,59.05
2023-01-29T20:16:18.162Z,59.01
2023-01-29T20:18:44.474Z,57.82
2023-01-29T20:21:10.775Z,57.56
2023-01-29T20:23:38.778Z,57.96
2023-01-29T20:26:05.177Z,58.91
2023-01-29T20:28:31.491Z,61.28
2023-01-29T20:30:57.781Z,60.63
2023-01-29T20:33:24.108Z,59.85
2023-01-29T20:35:50.411Z,60.27
2023-01-29T20:38:16.711Z,60.38
2023-01-29T20:40:43.015Z,61.28
2023-01-29T20:43:09.372Z,61.02
2023-01-29T20:45:35.721Z,61.76
2023-01-29T20:48:02.036Z,60.74
2023-01-29T20:50:28.358Z,60.85
2023-01-29T20:52:54.641Z,60.15
2023-01-29T20:55:21.203Z,59.31
2023-01-29T20:58:06.210Z,60.11
2023-01-29T21:00:33.072Z,61.17
2023-01-29T21:02:59.434Z,60.67
2023-01-29T21:05:25.733Z,60.74
2023-01-29T21:07:52.046Z,60.19
2023-01-29T21:10:18.667Z,61.29
2023-01-29T21:12:45.110Z,61.71
2023-01-29T21:15:11.411Z,61.10
2023-01-29T21:17:37.722Z,60.78
2023-01-29T21:20:04.020Z,60.00
2023-01-29T21:22:30.299Z,59.97
2023-01-29T21:24:56.610Z,61.20
2023-01-29T21:27:22.892Z,61.49
2023-01-29T21:29:49.186Z,62.00
2023-01-29T21:32:15.525Z,62.91
2023-01-29T21:34:41.826Z,63.35
2023-01-29T21:37:08.188Z,62.66
2023-01-29T21:39:34.494Z,62.68
2023-01-29T21:42:00.792Z,62.98
2023-01-29T21:44:27.086Z,62.33
2023-01-29T21:46:53.454Z,62.25
2023-01-29T21:49:19.755Z,62.85
2023-01-29T21:51:47.214Z,63.50
2023-01-29T21:54:13.518Z,62.01
2023-01-29T21:56:39.811Z,61.57
2023-01-29T21:59:10.407Z,62.31
2023-01-29T22:01:38.765Z,62.66
2023-01-29T22:04:05.219Z,60.83
2023-01-29T22:06:31.507Z,62.16
2023-01-29T22:08:57.829Z,62.11
2023-01-29T22:11:24.205Z,62.36
2023-01-29T22:13:50.487Z,61.14
2023-01-29T22:16:16.796Z,61.41
2023-01-29T22:18:43.099Z,61.97
2023-01-29T22:21:09.395Z,62.53
2023-01-29T22:23:35.711Z,60.24
2023-01-29T22:26:02.007Z,61.98
2023-01-29T22:28:28.305Z,61.40
2023-01-29T22:30:54.649Z,60.39
2023-01-29T22:33:20.940Z,60.26
2023-01-29T22:35:47.232Z,60.74
2023-01-29T22:38:13.537Z,61.42
2023-01-29T22:40:39.810Z,60.70
2023-01-29T22:43:06.111Z,61.41
2023-01-29T22:45:32.411Z,60.91
2023-01-29T22:47:58.700Z,60.34
2023-01-29T22:50:24.997Z,59.85
2023-01-29T22:52:51.331Z,60.23
2023-01-29T22:55:17.610Z,60.64
2023-01-29T22:57:43.907Z,60.61
2023-01-29T23:00:10.235Z,60.96
2023-01-29T23:02:36.530Z,60.55
2023-01-29T23:05:02.820Z,60.52
2023-01-29T23:07:29.119Z,59.99
2023-01-29T23:09:55.415Z,61.35
2023-01-29T23:12:21.719Z,62.07
2023-01-29T23:14:48.023Z,62.52
2023-01-29T23:17:14.367Z,60.46
2023-01-29T23:19:40.648Z,60.38
2023-01-29T23:22:07.018Z,61.45
2023-01-29T23:24:33.376Z,61.36
2023-01-29T23:26:59.669Z,60.64
2023-01-29T23:29:25.967Z,60.86
2023-01-29T23:31:52.251Z,61.86
2023-01-29T23:34:24.358Z,61.90
2023-01-29T23:36:50.677Z,61.45
2023-01-29T23:39:16.972Z,60.86
2023-01-29T23:41:43.270Z,62.30
2023-01-29T23:44:09.568Z,60.57
2023-01-29T23:46:35.885Z,60.57
2023-01-29T23:49:02.197Z,61.18
2023-01-29T23:51:28.496Z,61.01
2023-01-29T23:53:54.784Z,61.46
2023-01-29T23:56:21.075Z,59.74
2023-01-29T23:58:47.424Z,60.65
